createdAt,value
2023-05-02T00:00:15.787Z,100732.84
2023-05-02T00:02:44.296Z,100735.97
2023-05-02T00:05:12.606Z,100741.88
2023-05-02T00:07:40.871Z,100748.66
2023-05-02T00:10:10.055Z,100747.28
2023-05-02T00:12:38.584Z,100741.28
2023-05-02T00:15:09.890Z,100728.09
2023-05-02T00:17:41.669Z,100728.41
2023-05-02T00:20:11.606Z,100738.94
2023-05-02T00:22:40.194Z,100743.53
2023-05-02T00:25:09.346Z,100747.31
2023-05-02T00:27:37.783Z,100738.03
2023-05-02T00:30:09.121Z,100740.06
2023-05-02T00:32:38.186Z,100732.09
2023-05-02T00:35:07.660Z,100737.41
2023-05-02T00:37:36.088Z,100739.66
2023-05-02T00:40:05.169Z,100739.84
2023-05-02T00:42:36.096Z,100741.16
2023-05-02T00:45:06.691Z,100744.03
2023-05-02T00:47:36.661Z,100738.19
2023-05-02T00:50:05.667Z,100738.13
2023-05-02T00:52:34.446Z,100730.00
2023-05-02T00:55:03.374Z,100729.94
2023-05-02T00:57:31.581Z,100729.59
2023-05-02T01:00:00.047Z,100728.91
2023-05-02T01:02:39.582Z,100724.63
2023-05-02T01:05:17.313Z,100727.97
2023-05-02T01:08:02.133Z,100727.78
2023-05-02T01:10:39.793Z,100733.09
2023-05-02T01:13:11.921Z,100736.16
2023-05-02T01:15:41.688Z,100723.84
2023-05-02T01:18:12.044Z,100735.25
2023-05-02T01:20:45.904Z,100739.03
2023-05-02T01:23:22.665Z,100732.44
2023-05-02T01:26:03.490Z,100733.16
2023-05-02T01:28:38.287Z,100728.25
2023-05-02T01:31:08.318Z,100733.53
2023-05-02T01:33:37.693Z,100736.16
2023-05-02T01:36:08.375Z,100727.28
2023-05-02T01:38:38.554Z,100727.88
2023-05-02T01:41:08.003Z,100734.56
2023-05-02T01:43:39.032Z,100734.28
2023-05-02T01:46:10.922Z,100734.06
2023-05-02T01:48:41.994Z,100728.00
2023-05-02T01:51:12.768Z,100726.88
2023-05-02T01:53:41.727Z,100731.91
2023-05-02T01:56:09.982Z,100728.56
2023-05-02T01:58:40.711Z,100727.28
2023-05-02T02:01:11.472Z,100727.97
2023-05-02T02:03:40.355Z,100731.41
2023-05-02T02:06:09.952Z,100732.34
2023-05-02T02:08:38.177Z,100727.56
2023-05-02T02:11:16.008Z,100730.75
2023-05-02T02:13:50.004Z,100727.75
2023-05-02T02:16:25.563Z,100726.75
2023-05-02T02:18:57.497Z,100725.84
2023-05-02T02:21:27.822Z,100732.16
2023-05-02T02:23:59.788Z,100742.44
2023-05-02T02:26:28.288Z,100733.72
2023-05-02T02:28:57.425Z,100743.38
2023-05-02T02:31:31.837Z,100749.28
2023-05-02T02:34:01.146Z,100737.16
2023-05-02T02:36:35.360Z,100744.06
2023-05-02T02:39:11.566Z,100745.53
2023-05-02T02:41:45.912Z,100740.38
2023-05-02T02:44:27.614Z,100750.47
2023-05-02T02:47:07.665Z,100753.88
2023-05-02T02:49:45.756Z,100757.31
2023-05-02T02:52:22.469Z,100755.41
2023-05-02T02:54:58.579Z,100763.88
2023-05-02T02:57:34.129Z,100767.91
2023-05-02T03:00:11.004Z,100767.56
2023-05-02T03:02:42.879Z,100774.38
2023-05-02T03:05:12.148Z,100783.94
2023-05-02T03:07:40.674Z,100772.41
2023-05-02T03:10:09.581Z,100773.38
2023-05-02T03:12:40.107Z,100776.34
2023-05-02T03:15:34.954Z,100775.13
2023-05-02T03:18:04.844Z,100773.50
2023-05-02T03:20:33.323Z,100784.75
2023-05-02T03:23:03.141Z,100783.22
2023-05-02T03:25:31.848Z,100795.28
2023-05-02T03:28:00.221Z,100797.59
2023-05-02T03:30:28.487Z,100802.47
2023-05-02T03:32:57.148Z,100803.66
2023-05-02T03:35:27.077Z,100820.34
2023-05-02T03:37:55.629Z,100831.03
2023-05-02T03:40:24.482Z,100835.50
2023-05-02T03:42:52.914Z,100835.31
2023-05-02T03:45:27.958Z,100843.69
2023-05-02T03:47:56.775Z,100849.75
2023-05-02T03:50:25.143Z,100852.66
2023-05-02T03:52:55.898Z,100861.81
2023-05-02T03:55:32.886Z,100848.91
2023-05-02T03:58:01.739Z,100860.34
2023-05-02T04:00:30.018Z,100870.09
2023-05-02T04:03:04.734Z,100870.69
2023-05-02T04:05:34.704Z,100875.19
2023-05-02T04:08:04.312Z,100876.06
2023-05-02T04:10:32.883Z,100888.63
2023-05-02T04:13:04.113Z,100891.75
2023-05-02T04:15:34.190Z,100896.81
2023-05-02T04:18:02.900Z,100895.53
2023-05-02T04:20:31.872Z,100900.84
2023-05-02T04:23:00.138Z,100908.22
2023-05-02T04:25:30.122Z,100922.16
2023-05-02T04:28:05.011Z,100923.41
2023-05-02T04:30:33.877Z,100929.16
2023-05-02T04:33:09.750Z,100927.81
2023-05-02T04:35:40.911Z,100930.81
2023-05-02T04:38:10.383Z,100929.53
2023-05-02T04:40:40.497Z,100935.84
2023-05-02T04:43:10.091Z,100939.75
2023-05-02T04:45:43.896Z,100932.47
2023-05-02T04:48:18.540Z,100937.44
2023-05-02T04:50:47.080Z,100946.31
2023-05-02T04:53:15.280Z,100948.31
2023-05-02T04:55:45.668Z,100957.34
2023-05-02T04:58:13.897Z,100962.25
2023-05-02T05:00:43.145Z,100963.34
2023-05-02T05:03:11.450Z,100975.69
2023-05-02T05:05:40.209Z,100976.59
2023-05-02T05:08:11.652Z,100986.97
2023-05-02T05:10:40.868Z,100996.50
2023-05-02T05:13:12.596Z,100992.13
2023-05-02T05:15:41.394Z,101002.75
2023-05-02T05:18:11.307Z,101007.50
2023-05-02T05:20:39.577Z,101001.28
2023-05-02T05:23:08.049Z,101009.66
2023-05-02T05:25:36.639Z,101009.28
2023-05-02T05:28:04.880Z,101009.84
2023-05-02T05:30:36.767Z,101012.81
2023-05-02T05:33:07.878Z,101023.19
2023-05-02T05:35:36.723Z,101018.91
2023-05-02T05:38:04.890Z,101026.56
2023-05-02T05:40:36.000Z,101032.09
2023-05-02T05:43:05.329Z,101034.00
2023-05-02T05:45:39.136Z,101039.31
2023-05-02T05:48:08.133Z,101047.59
2023-05-02T05:50:42.347Z,101051.56
2023-05-02T05:53:10.656Z,101051.25
2023-05-02T05:55:42.338Z,101067.47
2023-05-02T05:58:11.116Z,101068.94
2023-05-02T06:00:42.403Z,101075.75
2023-05-02T06:03:10.918Z,101071.44
2023-05-02T06:05:39.941Z,101069.94
2023-05-02T06:08:09.393Z,101077.69
2023-05-02T06:10:37.575Z,101080.97
2023-05-02T06:13:06.247Z,101087.16
2023-05-02T06:15:37.870Z,101094.28
2023-05-02T06:18:08.838Z,101094.81
2023-05-02T06:20:37.256Z,101094.84
2023-05-02T06:23:05.576Z,101107.03
2023-05-02T06:25:34.021Z,101105.41
2023-05-02T06:28:02.169Z,101101.88
2023-05-02T06:30:30.358Z,101112.69
2023-05-02T06:32:58.595Z,101115.88
2023-05-02T06:35:28.153Z,101116.19
2023-05-02T06:37:56.313Z,101127.75
2023-05-02T06:40:24.525Z,101127.94
2023-05-02T06:42:52.706Z,101130.06
2023-05-02T06:45:20.897Z,101140.44
2023-05-02T06:47:49.155Z,101138.06
2023-05-02T06:50:17.732Z,101141.81
2023-05-02T06:52:47.243Z,101152.34
2023-05-02T06:55:15.408Z,101146.13
2023-05-02T06:57:43.696Z,101156.84
2023-05-02T07:00:13.068Z,101154.75
2023-05-02T07:02:41.323Z,101159.44
2023-05-02T07:05:10.215Z,101167.34
2023-05-02T07:07:38.781Z,101171.59
2023-05-02T07:10:09.533Z,101177.75
2023-05-02T07:12:38.346Z,101172.03
2023-05-02T07:15:07.793Z,101174.03
2023-05-02T07:17:36.383Z,101193.00
2023-05-02T07:20:05.390Z,101195.91
2023-05-02T07:22:33.790Z,101205.44
2023-05-02T07:25:03.802Z,101219.84
2023-05-02T07:27:33.288Z,101218.78
2023-05-02T07:30:01.887Z,101216.03
2023-05-02T07:32:32.331Z,101219.63
2023-05-02T07:35:00.619Z,101216.09
2023-05-02T07:37:34.811Z,101215.34
2023-05-02T07:40:03.454Z,101226.28
2023-05-02T07:42:33.843Z,101217.50
2023-05-02T07:45:02.065Z,101222.63
2023-05-02T07:47:30.283Z,101227.53
2023-05-02T07:49:58.754Z,101237.81
2023-05-02T07:52:27.272Z,101237.03
2023-05-02T07:54:55.549Z,101238.19
2023-05-02T07:57:23.759Z,101240.78
2023-05-02T07:59:53.262Z,101239.53
2023-05-02T08:02:24.027Z,101239.22
2023-05-02T08:04:52.549Z,101248.09
2023-05-02T08:07:21.458Z,101257.34
2023-05-02T08:09:49.931Z,101248.50
2023-05-02T08:12:18.075Z,101252.59
2023-05-02T08:14:46.284Z,101261.06
2023-05-02T08:17:15.838Z,101255.88
2023-05-02T08:19:44.380Z,101260.84
2023-05-02T08:22:12.521Z,101269.28
2023-05-02T08:24:40.785Z,101278.28
2023-05-02T08:27:09.033Z,101271.16
2023-05-02T08:29:37.168Z,101269.41
2023-05-02T08:32:05.913Z,101272.13
2023-05-02T08:34:35.567Z,101274.19
2023-05-02T08:37:09.411Z,101280.22
2023-05-02T08:39:37.720Z,101283.22
2023-05-02T08:42:07.692Z,101280.53
2023-05-02T08:44:36.120Z,101282.34
2023-05-02T08:47:06.001Z,101295.97
2023-05-02T08:49:36.805Z,101302.31
2023-05-02T08:52:06.749Z,101289.50
2023-05-02T08:54:37.211Z,101308.41
2023-05-02T08:57:07.067Z,101313.38
2023-05-02T08:59:35.427Z,101318.44
2023-05-02T09:02:24.758Z,101314.31
2023-05-02T09:04:59.014Z,101309.69
2023-05-02T09:07:27.891Z,101317.41
2023-05-02T09:09:57.014Z,101322.28
2023-05-02T09:12:28.184Z,101320.69
2023-05-02T09:15:11.010Z,101329.91
2023-05-02T09:17:42.132Z,101339.69
2023-05-02T09:20:13.083Z,101349.78
2023-05-02T09:22:49.405Z,101331.09
2023-05-02T09:25:18.236Z,101340.94
2023-05-02T09:27:54.567Z,101354.72
2023-05-02T09:30:25.399Z,101349.47
2023-05-02T09:32:55.641Z,101349.88
2023-05-02T09:35:26.045Z,101350.78
2023-05-02T09:37:55.207Z,101358.56
2023-05-02T09:40:24.427Z,101355.25
2023-05-02T09:42:53.380Z,101356.56
2023-05-02T09:45:23.194Z,101357.19
2023-05-02T09:47:52.166Z,101358.13
2023-05-02T09:50:39.496Z,101364.41
2023-05-02T09:53:11.274Z,101363.94
2023-05-02T09:55:39.494Z,101364.94
2023-05-02T09:58:07.729Z,101363.81
2023-05-02T10:00:43.211Z,101361.34
2023-05-02T10:03:12.130Z,101365.53
2023-05-02T10:05:42.263Z,101366.69
2023-05-02T10:08:11.234Z,101369.63
2023-05-02T10:10:41.884Z,101376.56
2023-05-02T10:13:10.905Z,101385.53
2023-05-02T10:15:44.593Z,101392.28
2023-05-02T10:18:15.303Z,101395.31
2023-05-02T10:20:56.769Z,101406.41
2023-05-02T10:23:27.785Z,101412.22
2023-05-02T10:25:58.184Z,101408.38
2023-05-02T10:28:28.490Z,101414.84
2023-05-02T10:30:57.132Z,101408.94
2023-05-02T10:33:26.148Z,101408.63
2023-05-02T10:35:55.977Z,101394.47
2023-05-02T10:38:25.016Z,101395.25
2023-05-02T10:40:57.220Z,101388.75
2023-05-02T10:43:28.268Z,101396.25
2023-05-02T10:45:56.509Z,101390.94
2023-05-02T10:48:26.682Z,101400.09
2023-05-02T10:50:57.780Z,101412.25
2023-05-02T10:53:27.969Z,101415.81
2023-05-02T10:56:17.334Z,101407.13
2023-05-02T10:58:46.872Z,101398.44
2023-05-02T11:01:38.059Z,101412.22
2023-05-02T11:04:12.588Z,101405.53
2023-05-02T11:07:19.861Z,101417.66
2023-05-02T11:09:48.047Z,101407.16
2023-05-02T11:12:47.801Z,101424.41
2023-05-02T11:15:16.759Z,101433.53
2023-05-02T11:18:01.853Z,101438.72
2023-05-02T11:20:31.776Z,101443.22
2023-05-02T11:23:22.871Z,101450.16
2023-05-02T11:25:52.202Z,101463.34
2023-05-02T11:28:48.161Z,101466.91
2023-05-02T11:32:02.903Z,101469.00
2023-05-02T11:34:42.321Z,101477.19
2023-05-02T11:37:14.466Z,101474.56
2023-05-02T11:39:44.155Z,101482.16
2023-05-02T11:42:28.421Z,101476.69
2023-05-02T11:44:57.877Z,101480.78
2023-05-02T11:47:29.391Z,101482.16
2023-05-02T11:49:59.813Z,101480.03
2023-05-02T11:52:28.033Z,101478.13
2023-05-02T11:54:57.896Z,101479.97
2023-05-02T11:57:26.424Z,101479.28
2023-05-02T11:59:55.832Z,101488.63
2023-05-02T12:02:37.401Z,101487.22
2023-05-02T12:05:06.993Z,101490.13
2023-05-02T12:07:36.484Z,101491.56
2023-05-02T12:10:07.775Z,101485.59
2023-05-02T12:12:36.316Z,101484.63
2023-05-02T12:15:05.548Z,101494.38
2023-05-02T12:17:35.860Z,101500.44
2023-05-02T12:20:05.109Z,101508.22
2023-05-02T12:22:33.559Z,101503.78
2023-05-02T12:25:04.247Z,101525.84
2023-05-02T12:27:35.168Z,101522.88
2023-05-02T12:30:03.922Z,101533.00
2023-05-02T12:32:34.129Z,101535.44
2023-05-02T12:35:04.179Z,101552.25
2023-05-02T12:37:32.481Z,101549.88
2023-05-02T12:40:01.112Z,101551.97
2023-05-02T12:42:32.393Z,101560.19
2023-05-02T12:45:01.918Z,101553.22
2023-05-02T12:47:30.156Z,101557.22
2023-05-02T12:50:00.438Z,101563.56
2023-05-02T12:52:50.000Z,101569.16
2023-05-02T12:55:18.891Z,101568.00
2023-05-02T12:57:47.518Z,101585.03
2023-05-02T13:00:18.637Z,101582.88
2023-05-02T13:02:46.920Z,101576.28
2023-05-02T13:05:15.773Z,101573.25
2023-05-02T13:07:44.110Z,101579.06
2023-05-02T13:10:12.898Z,101591.25
2023-05-02T13:12:41.446Z,101584.91
2023-05-02T13:15:10.321Z,101590.69
2023-05-02T13:17:40.019Z,101602.69
2023-05-02T13:20:10.624Z,101602.13
2023-05-02T13:22:39.129Z,101613.97
2023-05-02T13:25:09.337Z,101615.81
2023-05-02T13:27:37.506Z,101612.22
2023-05-02T13:30:09.094Z,101606.78
2023-05-02T13:32:37.969Z,101618.59
2023-05-02T13:35:09.154Z,101612.28
2023-05-02T13:37:37.324Z,101618.38
2023-05-02T13:40:06.706Z,101616.84
2023-05-02T13:42:35.377Z,101612.81
2023-05-02T13:45:05.206Z,101609.59
2023-05-02T13:47:33.399Z,101617.53
2023-05-02T13:50:02.234Z,101615.69
2023-05-02T13:52:32.159Z,101604.56
2023-05-02T13:55:00.335Z,101613.59
2023-05-02T13:57:28.470Z,101617.63
2023-05-02T13:59:56.775Z,101624.31
2023-05-02T14:02:25.133Z,101614.19
2023-05-02T14:04:53.442Z,101611.72
2023-05-02T14:07:21.600Z,101607.69
2023-05-02T14:09:51.221Z,101625.94
2023-05-02T14:12:19.452Z,101624.28
2023-05-02T14:14:47.576Z,101628.53
2023-05-02T14:17:15.951Z,101629.94
2023-05-02T14:19:44.212Z,101639.22
2023-05-02T14:22:12.414Z,101645.19
2023-05-02T14:24:40.546Z,101647.94
2023-05-02T14:27:12.992Z,101643.88
2023-05-02T14:29:41.198Z,101640.66
2023-05-02T14:32:09.457Z,101645.25
2023-05-02T14:34:37.784Z,101644.22
2023-05-02T14:37:05.973Z,101657.22
2023-05-02T14:39:34.256Z,101667.19
2023-05-02T14:42:03.216Z,101663.81
2023-05-02T14:44:33.363Z,101685.97
2023-05-02T14:47:02.430Z,101675.41
2023-05-02T14:49:30.728Z,101682.13
2023-05-02T14:51:58.897Z,101677.78
2023-05-02T14:54:28.307Z,101677.19
2023-05-02T14:56:56.906Z,101675.31
2023-05-02T14:59:25.112Z,101684.72
2023-05-02T15:01:54.760Z,101692.69
2023-05-02T15:04:23.992Z,101696.44
2023-05-02T15:06:54.499Z,101686.41
2023-05-02T15:09:23.301Z,101680.47
2023-05-02T15:11:51.610Z,101704.28
2023-05-02T15:14:20.015Z,101710.00
2023-05-02T15:16:48.539Z,101724.41
2023-05-02T15:19:18.296Z,101729.63
2023-05-02T15:21:46.476Z,101734.13
2023-05-02T15:24:14.617Z,101738.19
2023-05-02T15:26:42.800Z,101740.28
2023-05-02T15:29:11.076Z,101738.28
2023-05-02T15:31:39.669Z,101741.91
2023-05-02T15:34:07.881Z,101738.78
2023-05-02T15:36:37.941Z,101734.47
2023-05-02T15:39:07.010Z,101731.53
2023-05-02T15:41:35.379Z,101748.47
2023-05-02T15:44:03.582Z,101763.13
2023-05-02T15:46:31.927Z,101769.69
2023-05-02T15:49:00.165Z,101770.66
2023-05-02T15:51:28.679Z,101763.31
2023-05-02T15:53:58.475Z,101754.09
2023-05-02T15:56:26.628Z,101750.25
2023-05-02T15:58:54.803Z,101770.84
2023-05-02T16:01:24.167Z,101785.84
2023-05-02T16:03:52.607Z,101793.34
2023-05-02T16:06:20.950Z,101796.25
2023-05-02T16:08:49.117Z,101801.72
2023-05-02T16:11:18.654Z,101798.34
2023-05-02T16:13:46.842Z,101790.53
2023-05-02T16:16:15.067Z,101802.50
2023-05-02T16:18:43.246Z,101807.03
2023-05-02T16:21:11.649Z,101804.50
2023-05-02T16:23:39.967Z,101813.59
2023-05-02T16:26:08.141Z,101823.03
2023-05-02T16:28:37.762Z,101819.47
2023-05-02T16:31:11.249Z,101824.13
2023-05-02T16:33:39.804Z,101816.88
2023-05-02T16:36:08.381Z,101815.72
2023-05-02T16:38:37.331Z,101819.41
2023-05-02T16:41:07.084Z,101816.78
2023-05-02T16:43:37.592Z,101803.56
2023-05-02T16:46:07.374Z,101805.88
2023-05-02T16:48:36.305Z,101811.09
2023-05-02T16:51:04.778Z,101819.50
2023-05-02T16:53:33.226Z,101819.81
2023-05-02T16:56:01.789Z,101823.59
2023-05-02T16:58:30.192Z,101825.28
2023-05-02T17:01:01.744Z,101838.00
2023-05-02T17:03:30.178Z,101843.53
2023-05-02T17:06:02.477Z,101838.97
2023-05-02T17:08:31.963Z,101835.69
2023-05-02T17:11:00.084Z,101835.78
2023-05-02T17:13:28.885Z,101836.34
2023-05-02T17:15:57.507Z,101834.22
2023-05-02T17:18:27.188Z,101838.44
2023-05-02T17:20:55.741Z,101841.19
2023-05-02T17:23:24.520Z,101847.34
2023-05-02T17:25:52.788Z,101856.56
2023-05-02T17:28:21.096Z,101850.66
2023-05-02T17:30:53.698Z,101860.88
2023-05-02T17:33:22.303Z,101856.72
2023-05-02T17:35:52.261Z,101854.25
2023-05-02T17:38:20.577Z,101868.69
2023-05-02T17:40:48.726Z,101866.75
2023-05-02T17:43:16.912Z,101875.38
2023-05-02T17:45:45.367Z,101876.53
2023-05-02T17:48:13.729Z,101876.72
2023-05-02T17:50:42.099Z,101879.34
2023-05-02T17:53:11.617Z,101878.44
2023-05-02T17:55:40.021Z,101874.69
2023-05-02T17:58:08.404Z,101885.53
2023-05-02T18:00:40.357Z,101884.03
2023-05-02T18:03:09.201Z,101894.59
2023-05-02T18:05:39.520Z,101888.09
2023-05-02T18:08:08.358Z,101893.50
2023-05-02T18:10:42.706Z,101900.53
2023-05-02T18:13:10.925Z,101901.13
2023-05-02T18:15:39.297Z,101902.16
2023-05-02T18:18:07.728Z,101898.16
2023-05-02T18:20:39.671Z,101891.47
2023-05-02T18:23:07.892Z,101904.47
2023-05-02T18:25:36.833Z,101909.13
2023-05-02T18:28:06.589Z,101904.81
2023-05-02T18:30:37.109Z,101907.09
2023-05-02T18:33:06.351Z,101907.53
2023-05-02T18:35:35.512Z,101907.97
2023-05-02T18:38:06.543Z,101909.06
2023-05-02T18:40:34.722Z,101903.59
2023-05-02T18:43:03.034Z,101904.00
2023-05-02T18:45:33.062Z,101911.34
2023-05-02T18:48:01.367Z,101908.69
2023-05-02T18:50:29.889Z,101912.38
2023-05-02T18:52:58.101Z,101910.66
2023-05-02T18:55:26.381Z,101909.34
2023-05-02T18:57:54.702Z,101914.44
2023-05-02T19:00:23.421Z,101911.97
2023-05-02T19:02:54.420Z,101909.53
2023-05-02T19:05:22.901Z,101914.81
2023-05-02T19:07:51.106Z,101912.38
2023-05-02T19:10:19.361Z,101917.16
2023-05-02T19:12:48.476Z,101913.63
2023-05-02T19:15:16.835Z,101917.09
2023-05-02T19:17:45.286Z,101918.69
2023-05-02T19:20:14.904Z,101920.28
2023-05-02T19:22:43.267Z,101918.69
2023-05-02T19:25:12.843Z,101927.38
2023-05-02T19:27:42.201Z,101927.06
2023-05-02T19:30:13.525Z,101921.59
2023-05-02T19:32:42.226Z,101927.25
2023-05-02T19:35:11.370Z,101921.28
2023-05-02T19:37:40.934Z,101931.81
2023-05-02T19:40:10.875Z,101935.31
2023-05-02T19:42:39.451Z,101940.09
2023-05-02T19:45:09.869Z,101941.94
2023-05-02T19:47:43.677Z,101944.28
2023-05-02T19:50:12.637Z,101947.91
2023-05-02T19:52:44.434Z,101947.34
2023-05-02T19:55:12.734Z,101939.88
2023-05-02T19:57:44.124Z,101949.25
2023-05-02T20:00:14.032Z,101945.03
2023-05-02T20:02:42.479Z,101942.56
2023-05-02T20:05:11.468Z,101949.53
2023-05-02T20:07:39.609Z,101952.66
2023-05-02T20:10:10.493Z,101949.94
2023-05-02T20:12:44.660Z,101955.38
2023-05-02T20:15:12.862Z,101947.13
2023-05-02T20:17:41.139Z,101955.38
2023-05-02T20:20:11.422Z,101952.50
2023-05-02T20:22:41.050Z,101951.91
2023-05-02T20:25:12.386Z,101947.91
2023-05-02T20:27:40.879Z,101959.13
2023-05-02T20:30:10.565Z,101946.91
2023-05-02T20:32:38.864Z,101945.09
2023-05-02T20:35:08.092Z,101947.75
2023-05-02T20:37:36.249Z,101954.44
2023-05-02T20:40:05.876Z,101958.00
2023-05-02T20:42:35.433Z,101953.78
2023-05-02T20:45:07.075Z,101944.53
2023-05-02T20:47:36.008Z,101954.66
2023-05-02T20:50:04.682Z,101955.28
2023-05-02T20:52:33.083Z,101969.59
2023-05-02T20:55:01.572Z,101958.50
2023-05-02T20:57:29.832Z,101966.50
2023-05-02T21:00:00.092Z,101963.47
2023-05-02T21:02:28.861Z,101967.81
2023-05-02T21:04:57.212Z,101964.19
2023-05-02T21:07:25.380Z,101960.38
2023-05-02T21:09:53.564Z,101967.47
2023-05-02T21:12:21.851Z,101967.28
2023-05-02T21:14:50.037Z,101978.78
2023-05-02T21:17:19.570Z,101978.66
2023-05-02T21:19:47.800Z,101982.81
2023-05-02T21:22:15.935Z,101981.50
2023-05-02T21:24:48.034Z,101980.22
2023-05-02T21:27:16.215Z,101991.06
2023-05-02T21:29:44.402Z,101981.44
2023-05-02T21:32:12.729Z,101980.31
2023-05-02T21:34:42.322Z,101985.84
2023-05-02T21:37:10.546Z,101989.13
2023-05-02T21:39:39.731Z,101987.22
2023-05-02T21:42:07.907Z,101983.84
2023-05-02T21:44:36.349Z,101995.28
2023-05-02T21:47:04.598Z,101986.31
2023-05-02T21:49:32.756Z,101981.25
2023-05-02T21:52:03.494Z,101984.94
2023-05-02T21:54:32.798Z,101984.13
2023-05-02T21:57:02.704Z,101985.59
2023-05-02T21:59:30.980Z,101984.66
2023-05-02T22:01:59.197Z,101989.22
2023-05-02T22:04:27.315Z,101988.53
2023-05-02T22:06:55.680Z,101976.75
2023-05-02T22:09:25.303Z,101986.63
2023-05-02T22:11:53.620Z,101997.88
2023-05-02T22:14:27.649Z,101990.69
2023-05-02T22:17:04.545Z,101989.38
2023-05-02T22:19:34.059Z,101988.13
2023-05-02T22:22:02.351Z,101998.75
2023-05-02T22:24:31.890Z,101991.63
2023-05-02T22:27:00.070Z,101996.06
2023-05-02T22:29:28.348Z,102009.22
2023-05-02T22:31:56.615Z,102008.53
2023-05-02T22:34:26.149Z,102013.63
2023-05-02T22:36:54.267Z,102014.69
2023-05-02T22:39:22.630Z,102011.13
2023-05-02T22:41:52.173Z,102007.66
2023-05-02T22:44:20.496Z,102012.88
2023-05-02T22:46:48.794Z,102018.44
2023-05-02T22:49:18.160Z,102016.03
2023-05-02T22:51:48.054Z,102023.59
2023-05-02T22:54:16.830Z,102026.19
2023-05-02T22:56:45.142Z,102023.31
2023-05-02T22:59:15.357Z,102037.53
2023-05-02T23:01:43.686Z,102034.00
2023-05-02T23:04:11.907Z,102038.66
2023-05-02T23:06:40.093Z,102032.34
2023-05-02T23:09:08.372Z,102036.34
2023-05-02T23:11:36.507Z,102035.63
2023-05-02T23:14:04.786Z,102037.75
2023-05-02T23:16:34.451Z,102047.03
2023-05-02T23:19:02.708Z,102042.78
2023-05-02T23:21:30.997Z,102043.84
2023-05-02T23:23:59.530Z,102045.66
2023-05-02T23:26:27.721Z,102043.44
2023-05-02T23:28:55.837Z,102047.03
2023-05-02T23:31:24.073Z,102054.22
2023-05-02T23:33:53.999Z,102059.34
2023-05-02T23:36:22.859Z,102061.66
2023-05-02T23:38:51.561Z,102060.56
2023-05-02T23:41:19.705Z,102061.97
2023-05-02T23:43:47.926Z,102064.72
2023-05-02T23:46:16.162Z,102058.53
2023-05-02T23:48:44.369Z,102059.97
2023-05-02T23:51:14.031Z,102061.25
2023-05-02T23:53:42.188Z,102054.13
2023-05-02T23:56:10.893Z,102052.56
2023-05-02T23:58:39.098Z,102055.75
